LEX weather

Blue Grass Airport
Lexington, Kentucky, United States

Public forecast

Using degrees Fahrenheit for public forecast. Weather courtesy of forecast.io.

Current aviation weather report (METAR) for Blue Grass Airport

Retrieved 2019/11/14 21:54 UTC (58 minutes ago):

KLEX 142154Z 22006KT 10SM CLR 08/M05 A3025 RMK AO2 SLP247 T00781050

Aviation forecast (TAF) for Blue Grass Airport

Retrieved 2019/11/14 18:22 UTC (5 hours ago):

TAF KLEX 141720Z 1418/1518 22011KT P6SM SCT200 FM150000 27004KT P6SM SCT200 FM151000 33003KT 5SM BR SCT050 FM151400 36005KT P6SM SCT100